Time;durP1;ratioP1;P1;durP2;ratioP2;P2;SDS_P1;SDS_P2;PMS_P1;PMS_P2;Temp;Humidity;BMP_temperature;BMP_pressure;BME280_temperature;BME280_humidity;BME280_pressure;Samples;Min_cycle;Max_cycle;Signal;HPM_P1;HPM_P2
2022/07/24 00:00:29;;;;;;;0.20;0.20;;;;;;;;;;5068755;28;20029;-74
2022/07/24 00:02:55;;;;;;;0.20;0.20;;;;;;;;;;5069144;28;20032;-74
2022/07/24 00:05:21;;;;;;;0.20;0.20;;;;;;;;;;5069220;28;20033;-74
2022/07/24 00:07:47;;;;;;;0.20;0.20;;;;;;;;;;5069468;28;20028;-75
2022/07/24 00:10:12;;;;;;;0.20;0.20;;;;;;;;;;5069484;28;20541;-72
2022/07/24 00:12:38;;;;;;;2.28;1.00;;;;;;;;;;5069267;28;20052;-72
2022/07/24 00:15:04;;;;;;;0.20;0.20;;;;;;;;;;5067887;28;20040;-74
2022/07/24 00:17:30;;;;;;;0.20;0.20;;;;;;;;;;5069009;28;20116;-74
2022/07/24 00:19:55;;;;;;;0.13;0.13;;;;;;;;;;5069282;28;20433;-74
2022/07/24 00:22:21;;;;;;;0.45;0.45;;;;;;;;;;5068825;28;20578;-75
2022/07/24 00:24:47;;;;;;;0.35;0.35;;;;;;;;;;5068390;28;20108;-72
2022/07/24 00:27:12;;;;;;;0.45;0.45;;;;;;;;;;5051111;28;20055;-75
2022/07/24 00:29:38;;;;;;;1.45;1.35;;;;;;;;;;5048700;28;20178;-76
2022/07/24 00:32:03;;;;;;;0.20;0.20;;;;;;;;;;5047427;28;20052;-76
2022/07/24 00:34:29;;;;;;;0.30;0.30;;;;;;;;;;5051188;28;20056;-76
2022/07/24 00:36:54;;;;;;;0.20;0.20;;;;;;;;;;5053085;28;20039;-76
2022/07/24 00:39:20;;;;;;;0.30;0.30;;;;;;;;;;5051082;28;20076;-75
2022/07/24 00:41:45;;;;;;;0.30;0.30;;;;;;;;;;5047669;28;20067;-75
2022/07/24 00:44:12;;;;;;;0.20;0.20;;;;;;;;;;5050069;28;20084;-73
2022/07/24 00:46:39;;;;;;;1.95;1.75;;;;;;;;;;5052759;28;20037;-74
2022/07/24 00:49:06;;;;;;;0.20;0.20;;;;;;;;;;5051211;28;20075;-74
2022/07/24 00:51:31;;;;;;;0.65;0.63;;;;;;;;;;5052702;28;20144;-73
2022/07/24 00:53:57;;;;;;;0.30;0.30;;;;;;;;;;5055400;28;20054;-73
2022/07/24 00:56:22;;;;;;;0.20;0.20;;;;;;;;;;5055719;28;20029;-73
2022/07/24 00:58:48;;;;;;;0.50;0.50;;;;;;;;;;5056339;28;20388;-73
2022/07/24 01:01:14;;;;;;;0.35;0.35;;;;;;;;;;5054972;28;20045;-73
2022/07/24 01:03:40;;;;;;;0.20;0.20;;;;;;;;;;5054862;28;20413;-72
2022/07/24 01:06:06;;;;;;;0.20;0.20;;;;;;;;;;5055597;28;20037;-72
2022/07/24 01:08:32;;;;;;;0.20;0.20;;;;;;;;;;5055835;28;20124;-75
2022/07/24 01:10:58;;;;;;;0.20;0.20;;;;;;;;;;5056067;28;20500;-76
2022/07/24 01:13:24;;;;;;;0.20;0.20;;;;;;;;;;5054755;28;20025;-74
2022/07/24 01:15:49;;;;;;;0.20;0.20;;;;;;;;;;5055931;28;20468;-74
2022/07/24 01:18:16;;;;;;;0.20;0.20;;;;;;;;;;5055617;28;20040;-74
2022/07/24 01:20:45;;;;;;;0.10;0.10;;;;;;;;;;5056103;28;20033;-75
2022/07/24 01:23:10;;;;;;;0.20;0.20;;;;;;;;;;5054741;28;20021;-75
2022/07/24 01:25:36;;;;;;;0.30;0.30;;;;;;;;;;5054310;28;20060;-75
2022/07/24 01:28:02;;;;;;;0.20;0.20;;;;;;;;;;5054375;28;20372;-74
2022/07/24 01:30:28;;;;;;;0.20;0.20;;;;;;;;;;5054452;28;20395;-74
2022/07/24 01:32:55;;;;;;;0.20;0.20;;;;;;;;;;5055437;28;20118;-74
2022/07/24 01:35:22;;;;;;;1.57;1.10;;;;;;;;;;5055499;28;20032;-74
2022/07/24 01:37:47;;;;;;;0.20;0.20;;;;;;;;;;5055629;28;20264;-75
2022/07/24 01:40:13;;;;;;;0.40;0.40;;;;;;;;;;5054306;28;20037;-75
2022/07/24 01:42:38;;;;;;;0.20;0.20;;;;;;;;;;5055469;28;20025;-72
2022/07/24 01:45:04;;;;;;;0.20;0.20;;;;;;;;;;5053156;28;20029;-73
2022/07/24 01:47:30;;;;;;;0.20;0.20;;;;;;;;;;5055213;28;20013;-75
2022/07/24 01:49:55;;;;;;;0.20;0.20;;;;;;;;;;5054213;28;20032;-73
2022/07/24 01:52:24;;;;;;;0.30;0.30;;;;;;;;;;5037460;28;20052;-73
2022/07/24 01:54:51;;;;;;;0.57;0.57;;;;;;;;;;5054012;28;20094;-73
2022/07/24 01:57:19;;;;;;;0.20;0.20;;;;;;;;;;5055120;28;20017;-75
2022/07/24 01:59:45;;;;;;;0.23;0.23;;;;;;;;;;5054010;28;20495;-73
2022/07/24 02:02:10;;;;;;;15.02;14.00;;;;;;;;;;5054964;28;20028;-73
2022/07/24 02:04:36;;;;;;;0.25;0.25;;;;;;;;;;5055335;28;20025;-74
2022/07/24 02:07:02;;;;;;;0.20;0.20;;;;;;;;;;5055015;28;20025;-73
2022/07/24 02:09:27;;;;;;;0.30;0.30;;;;;;;;;;5054977;28;20393;-73
2022/07/24 02:11:53;;;;;;;0.20;0.20;;;;;;;;;;5055053;28;20032;-74
2022/07/24 02:14:19;;;;;;;0.35;0.35;;;;;;;;;;5054878;28;20430;-74
2022/07/24 02:16:45;;;;;;;0.20;0.20;;;;;;;;;;5054793;28;20037;-73
2022/07/24 02:19:10;;;;;;;0.30;0.30;;;;;;;;;;5054992;28;20025;-74
2022/07/24 02:21:36;;;;;;;0.20;0.20;;;;;;;;;;5056223;28;20380;-75
2022/07/24 02:24:01;;;;;;;0.20;0.20;;;;;;;;;;5064697;28;20029;-74
2022/07/24 02:26:27;;;;;;;0.25;0.25;;;;;;;;;;5057895;28;20040;-75
2022/07/24 02:28:52;;;;;;;0.20;0.20;;;;;;;;;;5054134;28;20048;-75
2022/07/24 02:31:18;;;;;;;0.20;0.20;;;;;;;;;;5054519;28;20037;-76
2022/07/24 02:33:43;;;;;;;0.17;0.17;;;;;;;;;;5054099;28;20049;-75
2022/07/24 02:36:09;;;;;;;0.20;0.20;;;;;;;;;;5054662;28;20396;-75
2022/07/24 02:38:34;;;;;;;0.20;0.20;;;;;;;;;;5054403;28;20495;-75
2022/07/24 02:41:00;;;;;;;0.20;0.20;;;;;;;;;;5054273;28;20024;-76
2022/07/24 02:43:25;;;;;;;0.30;0.30;;;;;;;;;;5053069;28;20037;-76
2022/07/24 02:45:51;;;;;;;0.20;0.20;;;;;;;;;;5054323;28;20009;-76
2022/07/24 02:48:16;;;;;;;0.20;0.20;;;;;;;;;;5053928;28;20041;-75
2022/07/24 02:50:42;;;;;;;0.20;0.20;;;;;;;;;;5054330;28;20124;-75
2022/07/24 02:53:07;;;;;;;0.20;0.20;;;;;;;;;;5054206;28;20057;-75
2022/07/24 02:55:33;;;;;;;0.63;0.63;;;;;;;;;;5053943;28;20100;-74
2022/07/24 02:57:58;;;;;;;0.20;0.20;;;;;;;;;;5054140;28;20053;-73
2022/07/24 03:00:24;;;;;;;0.20;0.20;;;;;;;;;;5052645;28;20066;-74
2022/07/24 03:02:49;;;;;;;2.65;2.50;;;;;;;;;;5050086;28;20112;-73
2022/07/24 03:05:15;;;;;;;0.20;0.20;;;;;;;;;;5049468;28;20112;-74
2022/07/24 03:07:40;;;;;;;7.03;0.95;;;;;;;;;;5050342;28;20807;-73
2022/07/24 03:10:07;;;;;;;0.57;0.57;;;;;;;;;;5050063;28;20045;-73
2022/07/24 03:12:32;;;;;;;0.20;0.20;;;;;;;;;;5050077;28;20036;-74
2022/07/24 03:14:58;;;;;;;0.40;0.40;;;;;;;;;;5049967;28;20032;-74
2022/07/24 03:17:23;;;;;;;0.28;0.28;;;;;;;;;;5049318;28;20029;-76
2022/07/24 03:19:49;;;;;;;1.75;0.50;;;;;;;;;;5050097;28;20398;-74
2022/07/24 03:22:14;;;;;;;0.50;0.50;;;;;;;;;;5048525;28;20056;-73
2022/07/24 03:24:40;;;;;;;1.45;1.35;;;;;;;;;;5049128;28;20047;-73
2022/07/24 03:27:05;;;;;;;0.68;0.57;;;;;;;;;;5048673;28;20029;-74
2022/07/24 03:29:31;;;;;;;0.50;0.50;;;;;;;;;;5049322;28;20051;-72
2022/07/24 03:31:56;;;;;;;0.20;0.20;;;;;;;;;;5048314;28;20029;-74
2022/07/24 03:34:22;;;;;;;0.20;0.20;;;;;;;;;;5049705;28;20102;-74
2022/07/24 03:36:47;;;;;;;0.20;0.20;;;;;;;;;;5049646;28;20029;-74
2022/07/24 03:39:13;;;;;;;0.20;0.20;;;;;;;;;;5049190;28;20472;-74
2022/07/24 03:41:39;;;;;;;0.20;0.20;;;;;;;;;;5049626;28;20020;-74
2022/07/24 03:44:04;;;;;;;0.30;0.30;;;;;;;;;;5049462;28;20032;-73
2022/07/24 03:46:30;;;;;;;0.20;0.20;;;;;;;;;;5049560;28;20031;-74
2022/07/24 03:48:55;;;;;;;0.30;0.30;;;;;;;;;;5049228;28;20028;-74
2022/07/24 03:51:21;;;;;;;0.20;0.20;;;;;;;;;;5049060;28;20471;-73
2022/07/24 03:53:47;;;;;;;1.00;0.70;;;;;;;;;;5049575;28;20032;-74
2022/07/24 03:56:12;;;;;;;0.17;0.17;;;;;;;;;;5049426;28;20033;-73
2022/07/24 03:58:38;;;;;;;0.68;0.68;;;;;;;;;;5049257;28;20112;-74
2022/07/24 04:01:03;;;;;;;0.20;0.20;;;;;;;;;;5048816;28;20090;-74
2022/07/24 04:03:29;;;;;;;0.50;0.50;;;;;;;;;;5049102;28;20480;-74
2022/07/24 04:05:54;;;;;;;0.20;0.20;;;;;;;;;;5049057;28;20033;-73
2022/07/24 04:08:20;;;;;;;0.20;0.20;;;;;;;;;;5049743;28;20025;-74
2022/07/24 04:10:45;;;;;;;0.47;0.47;;;;;;;;;;5052282;28;20029;-75
2022/07/24 04:13:11;;;;;;;0.68;0.68;;;;;;;;;;5052871;28;20017;-76
2022/07/24 04:15:36;;;;;;;0.38;0.38;;;;;;;;;;5053241;28;20426;-75
2022/07/24 04:18:02;;;;;;;0.35;0.35;;;;;;;;;;5053206;28;20028;-76
2022/07/24 04:20:28;;;;;;;0.20;0.20;;;;;;;;;;5052009;28;20029;-76
2022/07/24 04:22:53;;;;;;;0.20;0.20;;;;;;;;;;5053196;28;20025;-76
2022/07/24 04:25:19;;;;;;;0.20;0.20;;;;;;;;;;5053243;28;20086;-76
2022/07/24 04:27:45;;;;;;;1.73;1.63;;;;;;;;;;5053220;28;20456;-77
2022/07/24 04:30:11;;;;;;;0.20;0.20;;;;;;;;;;5053282;28;20620;-76
2022/07/24 04:32:36;;;;;;;0.20;0.20;;;;;;;;;;5052779;28;20025;-74
2022/07/24 04:35:03;;;;;;;0.20;0.20;;;;;;;;;;5052521;28;20025;-74
2022/07/24 04:37:29;;;;;;;0.20;0.20;;;;;;;;;;5053027;28;20056;-74
2022/07/24 04:39:54;;;;;;;0.20;0.20;;;;;;;;;;5051542;28;20079;-74
2022/07/24 04:42:19;;;;;;;0.20;0.20;;;;;;;;;;5053077;28;20033;-74
2022/07/24 04:44:45;;;;;;;0.30;0.30;;;;;;;;;;5053030;28;20104;-73
2022/07/24 04:47:10;;;;;;;0.40;0.40;;;;;;;;;;5051234;28;20041;-74
2022/07/24 04:49:36;;;;;;;0.40;0.40;;;;;;;;;;5052709;28;20044;-73
2022/07/24 04:52:01;;;;;;;0.20;0.20;;;;;;;;;;5052698;28;20060;-74
2022/07/24 04:54:27;;;;;;;0.10;0.10;;;;;;;;;;5052751;28;20460;-73
2022/07/24 04:56:52;;;;;;;0.30;0.30;;;;;;;;;;5051021;28;20032;-74
2022/07/24 04:59:18;;;;;;;0.20;0.20;;;;;;;;;;5051385;28;20037;-73
2022/07/24 05:01:43;;;;;;;2.00;1.25;;;;;;;;;;5054019;28;20431;-72
2022/07/24 05:04:09;;;;;;;0.20;0.20;;;;;;;;;;5051048;28;20024;-74
2022/07/24 05:06:34;;;;;;;0.20;0.20;;;;;;;;;;5051394;28;20021;-75
2022/07/24 05:09:00;;;;;;;0.60;0.60;;;;;;;;;;5050855;28;20235;-74
2022/07/24 05:11:25;;;;;;;0.20;0.20;;;;;;;;;;5034979;28;20044;-74
2022/07/24 05:13:50;;;;;;;0.30;0.30;;;;;;;;;;5052715;28;20049;-75
2022/07/24 05:16:16;;;;;;;0.20;0.20;;;;;;;;;;5052383;28;20068;-75
2022/07/24 05:18:41;;;;;;;1.13;1.10;;;;;;;;;;5050818;28;20025;-74
2022/07/24 05:21:07;;;;;;;1.58;1.15;;;;;;;;;;5045436;28;20412;-74
2022/07/24 05:23:33;;;;;;;0.20;0.20;;;;;;;;;;5043479;28;20025;-73
2022/07/24 05:25:58;;;;;;;0.30;0.30;;;;;;;;;;5052079;28;20029;-73
2022/07/24 05:28:24;;;;;;;0.20;0.20;;;;;;;;;;5050652;28;20029;-74
2022/07/24 05:30:49;;;;;;;1.27;0.63;;;;;;;;;;5052144;28;20100;-74
2022/07/24 05:33:15;;;;;;;0.20;0.20;;;;;;;;;;5051633;28;20045;-75
2022/07/24 05:35:40;;;;;;;0.20;0.20;;;;;;;;;;5050004;28;20044;-76
2022/07/24 05:38:06;;;;;;;0.20;0.20;;;;;;;;;;5051984;28;20032;-74
2022/07/24 05:40:31;;;;;;;0.50;0.50;;;;;;;;;;5051799;28;20032;-75
2022/07/24 05:46:15;;;;;;;0.30;0.30;;;;;;;;;;5046035;28;20080;-76
2022/07/24 05:48:41;;;;;;;0.22;0.22;;;;;;;;;;5051657;28;20075;-76
2022/07/24 05:51:06;;;;;;;0.40;0.40;;;;;;;;;;5051845;28;20033;-76
2022/07/24 05:53:32;;;;;;;25.50;12.80;;;;;;;;;;5051721;28;20021;-76
2022/07/24 05:55:57;;;;;;;1.58;1.48;;;;;;;;;;5051180;28;20021;-75
2022/07/24 05:58:23;;;;;;;1.17;0.88;;;;;;;;;;5051518;28;20124;-74
2022/07/24 06:00:48;;;;;;;0.40;0.40;;;;;;;;;;5051333;28;20453;-74
2022/07/24 06:03:14;;;;;;;0.20;0.20;;;;;;;;;;5051407;28;20175;-74
2022/07/24 06:05:39;;;;;;;1.27;1.27;;;;;;;;;;5051369;28;20522;-74
2022/07/24 06:08:05;;;;;;;0.20;0.20;;;;;;;;;;5051013;28;20037;-74
2022/07/24 06:10:31;;;;;;;0.20;0.20;;;;;;;;;;5050500;28;20040;-75
2022/07/24 06:12:57;;;;;;;0.25;0.25;;;;;;;;;;5051177;28;20063;-74
2022/07/24 06:15:22;;;;;;;0.30;0.30;;;;;;;;;;5049978;28;20060;-73
2022/07/24 06:17:48;;;;;;;0.20;0.20;;;;;;;;;;5051295;28;20460;-73
2022/07/24 06:20:13;;;;;;;0.20;0.20;;;;;;;;;;5051150;28;20495;-72
2022/07/24 06:22:40;;;;;;;0.30;0.30;;;;;;;;;;5051274;28;20037;-72
2022/07/24 06:25:06;;;;;;;0.30;0.30;;;;;;;;;;5050495;28;20082;-73
2022/07/24 06:27:31;;;;;;;0.30;0.30;;;;;;;;;;5051093;28;20111;-75
2022/07/24 06:29:57;;;;;;;0.30;0.30;;;;;;;;;;5057199;28;20793;-74
2022/07/24 06:32:22;;;;;;;0.20;0.20;;;;;;;;;;5056187;28;20025;-73
2022/07/24 06:34:48;;;;;;;0.28;0.28;;;;;;;;;;5052375;28;20591;-74
2022/07/24 06:37:14;;;;;;;0.88;0.88;;;;;;;;;;5032395;28;20125;-74
2022/07/24 06:39:39;;;;;;;0.40;0.40;;;;;;;;;;5055570;28;20155;-74
2022/07/24 06:42:05;;;;;;;0.32;0.32;;;;;;;;;;5050772;28;20465;-74
2022/07/24 06:44:32;;;;;;;0.50;0.50;;;;;;;;;;5049430;28;20062;-74
2022/07/24 06:46:58;;;;;;;0.30;0.30;;;;;;;;;;5050135;28;20100;-75
2022/07/24 06:49:23;;;;;;;0.30;0.30;;;;;;;;;;5029239;28;20117;-74
2022/07/24 06:51:49;;;;;;;0.60;0.60;;;;;;;;;;5045986;28;20057;-75
2022/07/24 06:54:14;;;;;;;0.50;0.50;;;;;;;;;;5037449;28;20025;-76
2022/07/24 06:56:40;;;;;;;0.35;0.35;;;;;;;;;;5050571;28;20187;-75
2022/07/24 06:59:05;;;;;;;0.30;0.30;;;;;;;;;;5050704;28;20103;-75
2022/07/24 07:01:31;;;;;;;0.50;0.50;;;;;;;;;;5049814;28;20468;-74
2022/07/24 07:03:56;;;;;;;0.70;0.70;;;;;;;;;;5050879;28;20040;-74
2022/07/24 07:06:22;;;;;;;0.40;0.40;;;;;;;;;;5050125;28;20083;-75
2022/07/24 07:08:47;;;;;;;0.30;0.30;;;;;;;;;;5049994;28;20064;-75
2022/07/24 07:11:13;;;;;;;1.42;1.25;;;;;;;;;;5049221;28;20037;-74
2022/07/24 07:13:38;;;;;;;5.57;2.35;;;;;;;;;;5048814;28;20032;-75
2022/07/24 07:16:04;;;;;;;0.40;0.40;;;;;;;;;;5058266;28;20442;-76
2022/07/24 07:18:29;;;;;;;0.30;0.30;;;;;;;;;;5069951;28;20102;-75
2022/07/24 07:20:55;;;;;;;0.30;0.30;;;;;;;;;;5064949;28;20083;-74
2022/07/24 07:23:21;;;;;;;0.85;0.85;;;;;;;;;;5060202;28;20032;-75
2022/07/24 07:25:47;;;;;;;0.45;0.45;;;;;;;;;;5068542;28;20033;-75
2022/07/24 07:28:13;;;;;;;0.30;0.30;;;;;;;;;;5069776;28;20094;-75
2022/07/24 07:30:38;;;;;;;0.47;0.47;;;;;;;;;;5069247;28;20410;-73
2022/07/24 07:33:04;;;;;;;0.30;0.30;;;;;;;;;;5069142;28;20041;-75
2022/07/24 07:35:29;;;;;;;0.40;0.40;;;;;;;;;;5059158;28;20029;-74
2022/07/24 07:37:55;;;;;;;0.40;0.40;;;;;;;;;;5040824;28;20029;-73
2022/07/24 07:40:20;;;;;;;0.30;0.30;;;;;;;;;;5049807;28;20060;-75
2022/07/24 07:42:46;;;;;;;3.17;1.90;;;;;;;;;;5048767;28;20031;-74
2022/07/24 07:45:11;;;;;;;0.88;0.88;;;;;;;;;;5048939;28;20394;-74
2022/07/24 07:47:37;;;;;;;0.40;0.40;;;;;;;;;;5049665;28;20021;-75
2022/07/24 07:50:04;;;;;;;0.40;0.40;;;;;;;;;;5048481;28;20051;-76
2022/07/24 07:52:29;;;;;;;0.52;0.52;;;;;;;;;;5049311;28;20029;-76
2022/07/24 07:54:55;;;;;;;0.30;0.30;;;;;;;;;;5049551;28;20029;-76
2022/07/24 07:57:20;;;;;;;11.20;4.78;;;;;;;;;;5048670;28;20036;-76
2022/07/24 07:59:46;;;;;;;0.60;0.60;;;;;;;;;;5048776;28;20063;-74
2022/07/24 08:02:11;;;;;;;0.38;0.38;;;;;;;;;;5053400;28;20025;-73
2022/07/24 08:04:37;;;;;;;0.40;0.40;;;;;;;;;;5055035;28;20526;-72
2022/07/24 08:07:02;;;;;;;2.15;2.05;;;;;;;;;;5047467;28;20064;-75
2022/07/24 08:09:28;;;;;;;0.73;0.73;;;;;;;;;;5048837;28;20072;-74
2022/07/24 08:11:53;;;;;;;0.75;0.75;;;;;;;;;;5047832;28;20028;-73
2022/07/24 08:14:19;;;;;;;0.55;0.55;;;;;;;;;;5046844;28;20087;-74
2022/07/24 08:16:44;;;;;;;1.35;1.23;;;;;;;;;;5051341;28;20120;-73
2022/07/24 08:19:10;;;;;;;1.70;1.52;;;;;;;;;;5048542;28;20032;-73
2022/07/24 08:21:35;;;;;;;2.47;1.77;;;;;;;;;;5051722;28;20025;-73
2022/07/24 08:24:01;;;;;;;0.47;0.47;;;;;;;;;;5053850;28;20099;-74
2022/07/24 08:26:30;;;;;;;0.47;0.47;;;;;;;;;;5027263;28;20056;-73
2022/07/24 08:28:57;;;;;;;0.40;0.40;;;;;;;;;;5038570;28;20080;-76
2022/07/24 08:31:22;;;;;;;0.70;0.70;;;;;;;;;;5046356;28;20056;-74
2022/07/24 08:33:49;;;;;;;0.40;0.40;;;;;;;;;;5043021;28;20480;-74
2022/07/24 08:36:14;;;;;;;0.30;0.30;;;;;;;;;;5035993;28;20542;-73
2022/07/24 08:38:40;;;;;;;2.28;1.95;;;;;;;;;;5045745;28;20044;-74
2022/07/24 08:41:06;;;;;;;0.40;0.40;;;;;;;;;;5040270;28;20056;-74
2022/07/24 08:43:32;;;;;;;0.40;0.40;;;;;;;;;;5037814;28;20029;-73
2022/07/24 08:45:59;;;;;;;0.47;0.47;;;;;;;;;;5027495;28;20036;-74
2022/07/24 08:48:26;;;;;;;1.40;1.10;;;;;;;;;;5047141;28;20070;-74
2022/07/24 08:50:52;;;;;;;0.30;0.30;;;;;;;;;;5048993;28;20033;-73
2022/07/24 08:53:22;;;;;;;0.70;0.70;;;;;;;;;;5053539;28;20032;-73
2022/07/24 08:55:48;;;;;;;2.50;1.70;;;;;;;;;;5058511;28;20025;-73
2022/07/24 08:58:13;;;;;;;0.50;0.50;;;;;;;;;;5052348;28;20468;-75
2022/07/24 09:00:39;;;;;;;0.50;0.50;;;;;;;;;;5057885;28;20017;-73
2022/07/24 09:03:05;;;;;;;1.77;1.25;;;;;;;;;;5068626;28;20028;-75
2022/07/24 09:05:34;;;;;;;1.25;1.00;;;;;;;;;;5072407;28;20568;-74
2022/07/24 09:08:10;;;;;;;1.40;1.10;;;;;;;;;;5072640;28;20033;-74
2022/07/24 09:10:35;;;;;;;1.83;1.33;;;;;;;;;;5072351;28;20035;-73
2022/07/24 09:13:12;;;;;;;3.03;2.42;;;;;;;;;;5072058;28;20113;-73
2022/07/24 09:15:47;;;;;;;0.43;0.43;;;;;;;;;;5072484;28;20399;-73
2022/07/24 09:18:30;;;;;;;1.13;1.02;;;;;;;;;;5072266;28;20494;-73
2022/07/24 09:20:55;;;;;;;3.65;1.67;;;;;;;;;;5072174;28;20028;-75
2022/07/24 09:23:21;;;;;;;1.20;0.93;;;;;;;;;;5071380;28;20123;-73
2022/07/24 09:25:50;;;;;;;0.40;0.40;;;;;;;;;;5071429;28;20024;-74
2022/07/24 09:28:16;;;;;;;0.95;0.95;;;;;;;;;;5037114;28;20018;-73
2022/07/24 09:30:42;;;;;;;0.90;0.90;;;;;;;;;;5049912;28;20119;-73
2022/07/24 09:33:10;;;;;;;2.65;2.20;;;;;;;;;;5049567;28;20067;-74
2022/07/24 09:35:37;;;;;;;0.57;0.57;;;;;;;;;;5049248;28;20049;-73
2022/07/24 09:38:03;;;;;;;0.70;0.70;;;;;;;;;;5049118;28;20040;-73
2022/07/24 09:40:31;;;;;;;1.42;1.33;;;;;;;;;;5049998;28;20064;-73
2022/07/24 09:43:12;;;;;;;0.50;0.50;;;;;;;;;;5049172;28;20057;-75
2022/07/24 09:45:50;;;;;;;1.65;0.70;;;;;;;;;;5046551;28;20025;-74
2022/07/24 09:48:16;;;;;;;2.05;1.85;;;;;;;;;;5048925;28;20024;-73
2022/07/24 09:50:48;;;;;;;0.60;0.60;;;;;;;;;;5048303;28;20029;-73
2022/07/24 09:53:16;;;;;;;0.80;0.80;;;;;;;;;;5047810;28;20432;-74
2022/07/24 09:55:43;;;;;;;1.90;1.55;;;;;;;;;;5048956;28;20025;-75
2022/07/24 09:58:18;;;;;;;4.43;2.63;;;;;;;;;;5049975;28;20032;-76
2022/07/24 10:00:43;;;;;;;0.82;0.80;;;;;;;;;;5048107;28;20461;-74
2022/07/24 10:03:14;;;;;;;1.08;1.00;;;;;;;;;;5046703;28;20029;-75
2022/07/24 10:05:42;;;;;;;0.50;0.50;;;;;;;;;;5045124;28;20108;-75
2022/07/24 10:08:10;;;;;;;7.47;2.78;;;;;;;;;;5047390;28;20025;-75
2022/07/24 10:10:36;;;;;;;8.63;2.80;;;;;;;;;;5046745;28;20033;-74
2022/07/24 10:13:03;;;;;;;2.38;2.03;;;;;;;;;;5030055;28;20116;-74
2022/07/24 10:15:29;;;;;;;0.93;0.85;;;;;;;;;;5047195;28;20021;-74
2022/07/24 10:18:01;;;;;;;0.50;0.50;;;;;;;;;;5046799;28;20040;-73
2022/07/24 10:20:37;;;;;;;0.75;0.63;;;;;;;;;;5047109;28;20110;-74
2022/07/24 10:23:04;;;;;;;3.03;1.65;;;;;;;;;;5047314;28;20036;-73
2022/07/24 10:25:38;;;;;;;2.58;2.00;;;;;;;;;;5046807;28;20028;-73
2022/07/24 10:28:07;;;;;;;0.50;0.50;;;;;;;;;;5046228;28;20130;-75
2022/07/24 10:30:33;;;;;;;3.28;2.35;;;;;;;;;;5047167;28;20114;-74
2022/07/24 10:32:58;;;;;;;0.75;0.75;;;;;;;;;;5046704;28;20556;-74
2022/07/24 10:35:26;;;;;;;0.50;0.50;;;;;;;;;;5048405;28;20035;-74
2022/07/24 10:37:52;;;;;;;;;;;;;;;;;;5048893;28;20058;-74
2022/07/24 10:40:36;;;;;;;2.77;1.80;;;;;;;;;;5048611;28;19963;-74
2022/07/24 10:43:05;;;;;;;2.08;1.85;;;;;;;;;;5047222;28;21127;-74
2022/07/24 10:45:31;;;;;;;7.70;2.67;;;;;;;;;;5049130;28;20029;-74
2022/07/24 10:47:59;;;;;;;0.90;0.80;;;;;;;;;;5048373;28;20488;-74
2022/07/24 10:50:45;;;;;;;1.35;0.90;;;;;;;;;;5047924;28;20048;-74
2022/07/24 10:53:21;;;;;;;0.40;0.40;;;;;;;;;;5047921;28;20025;-74
2022/07/24 10:55:47;;;;;;;2.22;1.38;;;;;;;;;;5048585;28;20477;-73
2022/07/24 10:58:14;;;;;;;0.60;0.60;;;;;;;;;;5048540;28;20052;-74
2022/07/24 11:00:43;;;;;;;0.82;0.82;;;;;;;;;;5048102;28;20025;-73
2022/07/24 11:03:08;;;;;;;;;;;;;;;;;;5047826;28;20025;-74
2022/07/24 11:05:35;;;;;;;5.13;2.83;;;;;;;;;;5048187;28;19912;-74
2022/07/24 11:08:14;;;;;;;0.70;0.70;;;;;;;;;;5050071;28;20025;-74
2022/07/24 11:10:47;;;;;;;3.17;2.42;;;;;;;;;;5050012;28;20040;-73
2022/07/24 11:13:38;;;;;;;0.50;0.50;;;;;;;;;;5048873;28;20037;-73
2022/07/24 11:16:10;;;;;;;4.90;2.42;;;;;;;;;;5047691;28;20539;-74
2022/07/24 11:18:53;;;;;;;1.75;1.48;;;;;;;;;;5050214;28;20033;-75
2022/07/24 11:21:36;;;;;;;0.65;0.65;;;;;;;;;;5049667;28;20018;-74
2022/07/24 11:24:13;;;;;;;0.70;0.70;;;;;;;;;;5049339;28;20107;-74
2022/07/24 11:26:47;;;;;;;1.23;0.95;;;;;;;;;;5049164;28;20021;-74
2022/07/24 11:29:22;;;;;;;0.40;0.40;;;;;;;;;;5049512;28;20480;-73
2022/07/24 11:31:49;;;;;;;1.42;1.33;;;;;;;;;;5049411;28;20021;-73
2022/07/24 11:34:15;;;;;;;1.40;1.27;;;;;;;;;;5049234;28;20041;-74
2022/07/24 11:36:44;;;;;;;3.30;2.42;;;;;;;;;;5049110;28;20353;-74
2022/07/24 11:39:10;;;;;;;0.73;0.57;;;;;;;;;;5046203;28;20381;-75
2022/07/24 11:41:49;;;;;;;1.38;1.17;;;;;;;;;;5049580;28;20036;-74
2022/07/24 11:44:21;;;;;;;1.92;1.52;;;;;;;;;;5049508;28;20465;-73
2022/07/24 11:46:46;;;;;;;2.30;1.98;;;;;;;;;;5049577;28;20021;-73
2022/07/24 11:49:12;;;;;;;1.75;1.33;;;;;;;;;;5048847;28;20120;-74
2022/07/24 11:51:44;;;;;;;3.58;1.60;;;;;;;;;;5049584;28;20033;-73
2022/07/24 11:54:14;;;;;;;0.45;0.45;;;;;;;;;;5045899;28;20079;-73
2022/07/24 11:56:39;;;;;;;0.55;0.55;;;;;;;;;;5049311;28;20115;-74
2022/07/24 11:59:05;;;;;;;2.95;2.58;;;;;;;;;;5052521;28;20120;-73
2022/07/24 12:01:31;;;;;;;1.65;1.05;;;;;;;;;;5049353;28;20029;-73
2022/07/24 12:03:57;;;;;;;0.85;0.82;;;;;;;;;;5049305;28;20025;-74
2022/07/24 12:06:23;;;;;;;1.17;1.08;;;;;;;;;;5049148;28;20488;-74
2022/07/24 12:08:49;;;;;;;0.50;0.50;;;;;;;;;;5049070;28;20037;-74
2022/07/24 12:11:21;;;;;;;1.35;1.25;;;;;;;;;;5054193;28;20032;-74
2022/07/24 12:13:47;;;;;;;1.35;1.25;;;;;;;;;;5037734;28;20045;-74
2022/07/24 12:16:22;;;;;;;1.35;1.25;;;;;;;;;;5058950;28;20024;-75
2022/07/24 12:18:47;;;;;;;1.80;1.55;;;;;;;;;;5049290;28;20040;-75
2022/07/24 12:21:14;;;;;;;0.40;0.40;;;;;;;;;;5048520;28;20028;-73
2022/07/24 12:23:40;;;;;;;3.72;1.67;;;;;;;;;;5049242;28;20426;-74
2022/07/24 12:26:05;;;;;;;2.50;1.60;;;;;;;;;;5048821;28;20021;-74
2022/07/24 12:28:31;;;;;;;1.27;1.17;;;;;;;;;;5052744;28;20373;-73
2022/07/24 12:31:06;;;;;;;0.40;0.40;;;;;;;;;;5058600;28;20029;-74
2022/07/24 12:33:33;;;;;;;1.67;1.38;;;;;;;;;;5050775;28;20119;-74
2022/07/24 12:36:09;;;;;;;0.40;0.40;;;;;;;;;;5051783;28;20033;-75
2022/07/24 12:38:36;;;;;;;0.60;0.60;;;;;;;;;;5052154;28;20039;-74
2022/07/24 12:41:01;;;;;;;1.05;1.05;;;;;;;;;;5043732;28;20031;-75
2022/07/24 12:43:28;;;;;;;1.63;1.10;;;;;;;;;;5057337;28;20099;-73
2022/07/24 12:46:09;;;;;;;0.80;0.68;;;;;;;;;;5057793;28;20020;-75
2022/07/24 12:48:35;;;;;;;1.05;1.02;;;;;;;;;;5039615;28;20037;-74
2022/07/24 12:51:01;;;;;;;2.03;1.60;;;;;;;;;;5030750;28;20038;-73
2022/07/24 12:53:28;;;;;;;0.63;0.60;;;;;;;;;;5036358;28;20582;-75
2022/07/24 12:56:09;;;;;;;2.30;1.25;;;;;;;;;;5048336;28;20029;-76
2022/07/24 12:58:55;;;;;;;1.33;0.93;;;;;;;;;;5052005;28;20032;-75
2022/07/24 13:01:21;;;;;;;0.77;0.68;;;;;;;;;;5046454;28;20693;-75
2022/07/24 13:03:53;;;;;;;1.75;1.63;;;;;;;;;;5050831;28;20499;-76
2022/07/24 13:06:29;;;;;;;0.60;0.60;;;;;;;;;;5048822;28;20025;-75
2022/07/24 13:08:55;;;;;;;1.67;1.25;;;;;;;;;;5055020;28;20033;-76
2022/07/24 13:11:21;;;;;;;3.83;3.42;;;;;;;;;;5062107;28;20448;-75
2022/07/24 13:13:47;;;;;;;4.28;1.60;;;;;;;;;;5061493;28;20535;-75
2022/07/24 13:16:12;;;;;;;0.80;0.80;;;;;;;;;;5050836;28;20033;-75
2022/07/24 13:18:38;;;;;;;0.55;0.52;;;;;;;;;;5058091;28;20021;-74
2022/07/24 13:21:03;;;;;;;1.48;1.02;;;;;;;;;;5060537;28;20059;-74
2022/07/24 13:23:29;;;;;;;0.80;0.80;;;;;;;;;;5059588;28;20079;-75
2022/07/24 13:25:54;;;;;;;0.52;0.52;;;;;;;;;;5069531;28;20120;-74
2022/07/24 13:28:19;;;;;;;0.40;0.40;;;;;;;;;;5050033;28;20025;-75
2022/07/24 13:30:45;;;;;;;3.47;2.20;;;;;;;;;;5049463;28;20033;-75
2022/07/24 13:33:10;;;;;;;2.70;1.00;;;;;;;;;;5044812;28;20053;-74
2022/07/24 13:35:35;;;;;;;1.38;1.27;;;;;;;;;;5039502;28;20118;-75
2022/07/24 13:38:01;;;;;;;3.05;1.80;;;;;;;;;;5046446;28;20163;-75
2022/07/24 13:40:26;;;;;;;1.70;1.48;;;;;;;;;;5050767;28;20116;-74
2022/07/24 13:42:52;;;;;;;3.78;2.55;;;;;;;;;;5049756;28;20025;-74
2022/07/24 13:45:17;;;;;;;1.15;1.00;;;;;;;;;;5051784;28;20032;-74
2022/07/24 13:47:43;;;;;;;4.60;2.58;;;;;;;;;;5049423;28;20464;-74
2022/07/24 13:50:08;;;;;;;3.85;2.80;;;;;;;;;;5047835;28;20041;-74
2022/07/24 13:52:34;;;;;;;7.28;2.53;;;;;;;;;;5042893;28;20725;-74
2022/07/24 13:54:59;;;;;;;3.65;2.05;;;;;;;;;;5038860;28;20018;-74
2022/07/24 13:57:25;;;;;;;2.38;1.85;;;;;;;;;;5036705;28;20106;-74
2022/07/24 13:59:50;;;;;;;3.22;1.83;;;;;;;;;;5044921;28;20067;-74
2022/07/24 14:02:16;;;;;;;1.33;1.23;;;;;;;;;;5045469;28;20079;-75
2022/07/24 14:04:43;;;;;;;0.85;0.80;;;;;;;;;;5044393;28;20025;-74
2022/07/24 14:07:09;;;;;;;4.13;3.47;;;;;;;;;;5050123;28;20350;-73
2022/07/24 14:09:34;;;;;;;2.35;2.15;;;;;;;;;;5039567;28;20044;-73
2022/07/24 14:11:59;;;;;;;2.33;2.13;;;;;;;;;;5040074;28;20033;-73
2022/07/24 14:14:26;;;;;;;5.50;2.60;;;;;;;;;;5038288;28;20389;-72
2022/07/24 14:16:54;;;;;;;2.20;1.98;;;;;;;;;;5031190;28;20030;-74
2022/07/24 14:19:19;;;;;;;3.10;2.50;;;;;;;;;;5031087;28;20405;-75
2022/07/24 14:21:47;;;;;;;3.22;2.40;;;;;;;;;;5030961;28;20033;-73
2022/07/24 14:24:12;;;;;;;2.08;1.77;;;;;;;;;;5031670;28;20457;-74
2022/07/24 14:26:38;;;;;;;0.52;0.52;;;;;;;;;;5051277;28;20035;-75
2022/07/24 14:29:04;;;;;;;2.60;2.00;;;;;;;;;;5040692;28;20132;-74
2022/07/24 14:31:29;;;;;;;0.93;0.85;;;;;;;;;;5040607;28;20109;-74
2022/07/24 14:33:55;;;;;;;3.15;2.85;;;;;;;;;;5057745;28;20045;-75
2022/07/24 14:36:20;;;;;;;1.30;1.10;;;;;;;;;;5049609;28;20491;-75
2022/07/24 14:38:46;;;;;;;0.63;0.63;;;;;;;;;;5048999;28;20052;-75
2022/07/24 14:41:11;;;;;;;0.75;0.75;;;;;;;;;;5047970;28;20033;-73
2022/07/24 14:43:37;;;;;;;1.35;1.25;;;;;;;;;;5048586;28;20106;-72